Time;durP1;ratioP1;P1;durP2;ratioP2;P2;SDS_P1;SDS_P2;PMS_P1;PMS_P2;Temp;Humidity;BMP_temperature;BMP_pressure;BME280_temperature;BME280_humidity;BME280_pressure;Samples;Min_cycle;Max_cycle;Signal;HPM_P1;HPM_P2
2021/06/22 00:00:12;;;;;;;6.07;4.13;;;;;;;17.50;64.96;100126.06;5086763;28;20056;-79
2021/06/22 00:02:39;;;;;;;6.78;3.95;;;;;;;17.57;65.31;100114.91;5086332;28;20497;-78
2021/06/22 00:05:08;;;;;;;5.90;4.20;;;;;;;17.56;64.70;100102.03;5085922;28;20063;-80
2021/06/22 00:07:35;;;;;;;4.85;3.58;;;;;;;17.58;64.29;100099.66;5086437;28;20052;-80
2021/06/22 00:10:04;;;;;;;6.85;3.65;;;;;;;17.49;64.67;100101.88;5085718;28;20049;-79
2021/06/22 00:12:32;;;;;;;6.67;3.90;;;;;;;17.36;64.75;100093.56;5088342;28;20056;-79
2021/06/22 00:15:00;;;;;;;6.22;3.40;;;;;;;17.29;64.91;100101.06;5086271;28;20052;-80
2021/06/22 00:17:27;;;;;;;5.00;3.33;;;;;;;17.33;64.80;100099.16;5086222;28;20049;-79
2021/06/22 00:19:54;;;;;;;7.38;3.42;;;;;;;17.22;64.32;100085.66;5087369;28;20052;-80
2021/06/22 00:22:22;;;;;;;6.20;3.17;;;;;;;17.25;64.34;100079.28;5087245;28;20048;-79
2021/06/22 00:24:49;;;;;;;4.57;3.33;;;;;;;17.27;64.94;100061.22;5097615;28;20111;-79
2021/06/22 00:27:18;;;;;;;5.82;3.28;;;;;;;17.20;64.33;100064.69;5106995;28;20051;-80
2021/06/22 00:29:48;;;;;;;4.73;3.03;;;;;;;17.19;64.32;100065.88;5106933;28;20048;-79
2021/06/22 00:32:16;;;;;;;6.38;2.92;;;;;;;17.16;64.51;100055.38;5107318;28;20059;-79
2021/06/22 00:34:44;;;;;;;6.70;2.97;;;;;;;17.17;64.17;100066.22;5106938;28;20032;-79
2021/06/22 00:37:14;;;;;;;5.68;3.53;;;;;;;17.20;63.98;100073.16;5106389;28;20043;-79
2021/06/22 00:39:41;;;;;;;;;;;;;;;17.19;63.70;100085.56;5105038;28;20050;-80
2021/06/22 00:42:09;;;;;;;6.05;3.28;;;;;;;17.15;63.09;100076.22;5106501;28;19926;-80
2021/06/22 00:44:46;;;;;;;4.10;2.75;;;;;;;17.19;62.22;100077.94;5105833;28;20055;-79
2021/06/22 00:47:13;;;;;;;6.65;2.95;;;;;;;17.20;61.93;100087.22;5106591;28;20052;-79
2021/06/22 00:49:41;;;;;;;4.70;2.85;;;;;;;17.08;62.24;100082.53;5106511;28;20056;-79
2021/06/22 00:52:08;;;;;;;6.15;3.22;;;;;;;17.04;62.37;100082.44;5106142;28;20067;-79
2021/06/22 00:54:36;;;;;;;5.93;3.20;;;;;;;17.02;62.35;100095.25;5095339;28;20057;-79
2021/06/22 00:57:07;;;;;;;7.93;2.90;;;;;;;16.98;62.53;100097.16;5085864;28;20385;-79
2021/06/22 00:59:34;;;;;;;3.85;2.72;;;;;;;17.00;62.19;100103.25;5089990;28;20048;-80
2021/06/22 01:02:04;;;;;;;4.05;2.42;;;;;;;17.02;62.16;100100.88;5107018;28;20052;-79
2021/06/22 01:04:32;;;;;;;5.18;2.67;;;;;;;16.98;62.27;100097.97;5105280;28;20055;-79
2021/06/22 01:07:01;;;;;;;4.35;2.47;;;;;;;16.99;61.61;100098.81;5106942;28;20059;-79
2021/06/22 01:09:29;;;;;;;4.77;2.60;;;;;;;16.96;62.08;100103.16;5093764;28;20052;-80
2021/06/22 01:11:57;;;;;;;5.18;2.90;;;;;;;16.94;62.17;100097.06;5086057;28;20475;-80
2021/06/22 01:14:25;;;;;;;5.82;2.50;;;;;;;16.94;62.17;100094.25;5085887;28;20048;-80
2021/06/22 01:16:52;;;;;;;4.22;3.05;;;;;;;16.94;62.08;100091.44;5085173;28;20060;-80
2021/06/22 01:19:22;;;;;;;4.20;2.45;;;;;;;16.81;62.70;100098.38;5086359;28;20052;-80
2021/06/22 01:21:50;;;;;;;4.88;2.70;;;;;;;16.88;62.70;100101.34;5085414;28;20063;-80
2021/06/22 01:24:19;;;;;;;7.50;2.50;;;;;;;16.91;62.22;100106.25;5087928;28;20045;-79
2021/06/22 01:26:49;;;;;;;3.78;2.38;;;;;;;16.93;62.50;100100.28;5085550;28;20055;-79
2021/06/22 01:29:17;;;;;;;5.10;3.08;;;;;;;16.95;62.45;100090.28;5084924;28;20059;-79
2021/06/22 01:31:45;;;;;;;4.38;2.55;;;;;;;16.98;62.62;100086.72;5085627;28;20052;-79
2021/06/22 01:34:12;;;;;;;5.88;3.28;;;;;;;17.00;62.68;100084.34;5085875;28;20052;-79
2021/06/22 01:36:41;;;;;;;4.30;2.72;;;;;;;17.02;62.56;100084.00;5085651;28;20059;-79
2021/06/22 01:39:14;;;;;;;5.30;2.53;;;;;;;16.99;62.74;100091.19;5093940;28;20044;-79
2021/06/22 01:41:43;;;;;;;4.18;2.90;;;;;;;16.91;63.13;100083.75;5101829;28;20055;-79
2021/06/22 01:44:11;;;;;;;6.18;3.30;;;;;;;16.96;63.10;100089.09;5085917;28;20063;-78
2021/06/22 01:46:41;;;;;;;4.95;3.10;;;;;;;16.94;62.88;100074.56;5085898;28;20058;-79
2021/06/22 01:49:08;;;;;;;5.45;3.33;;;;;;;16.93;63.17;100080.59;5089610;28;20044;-79
2021/06/22 01:51:38;;;;;;;5.53;3.40;;;;;;;16.79;63.41;100087.47;5104746;28;20048;-79
2021/06/22 01:54:05;;;;;;;4.95;2.80;;;;;;;16.79;63.29;100092.28;5105700;28;20052;-80
2021/06/22 01:56:34;;;;;;;9.52;3.55;;;;;;;16.81;62.89;100090.75;5100566;28;20052;-79
2021/06/22 01:59:02;;;;;;;4.70;2.90;;;;;;;16.75;63.20;100088.56;5084282;28;20162;-80
2021/06/22 02:01:31;;;;;;;5.63;3.03;;;;;;;16.72;63.16;100084.50;5085131;28;20071;-80
2021/06/22 02:03:58;;;;;;;3.65;2.63;;;;;;;16.54;63.80;100086.06;5085670;28;20068;-80
2021/06/22 02:06:26;;;;;;;5.50;3.15;;;;;;;16.44;64.17;100090.22;5085169;28;20049;-80
2021/06/22 02:08:53;;;;;;;5.13;3.00;;;;;;;16.46;64.28;100087.88;5085323;28;20052;-80
2021/06/22 02:11:20;;;;;;;5.72;3.20;;;;;;;16.45;64.43;100091.88;5086436;28;20048;-80
2021/06/22 02:13:49;;;;;;;4.75;3.08;;;;;;;16.60;63.40;100098.66;5084104;28;20473;-80
2021/06/22 02:16:17;;;;;;;5.15;2.67;;;;;;;16.58;63.53;100107.44;5084003;28;20063;-80
2021/06/22 02:18:44;;;;;;;3.72;2.70;;;;;;;16.55;63.66;100111.00;5084650;28;20055;-80
2021/06/22 02:21:12;;;;;;;5.60;3.20;;;;;;;16.58;63.84;100115.88;5085036;28;20063;-79
2021/06/22 02:23:40;;;;;;;6.95;3.00;;;;;;;16.60;63.21;100121.97;5085754;28;20071;-79
2021/06/22 02:26:08;;;;;;;5.60;3.20;;;;;;;16.62;63.33;100127.22;5085115;28;20049;-78
2021/06/22 02:28:35;;;;;;;4.53;3.00;;;;;;;16.60;63.30;100133.22;5085212;28;20056;-79
2021/06/22 02:31:05;;;;;;;6.63;2.85;;;;;;;16.58;63.53;100126.31;5086025;28;20056;-79
2021/06/22 02:33:34;;;;;;;6.57;3.30;;;;;;;16.62;63.56;100122.41;5085027;28;20052;-80
2021/06/22 02:36:02;;;;;;;6.03;3.08;;;;;;;16.63;63.02;100124.06;5085007;28;20056;-78
2021/06/22 02:38:29;;;;;;;7.00;3.42;;;;;;;16.64;63.64;100119.25;5087340;28;20056;-81
2021/06/22 02:40:56;;;;;;;5.43;3.47;;;;;;;16.68;62.99;100113.72;5105722;28;20066;-80
2021/06/22 02:43:24;;;;;;;6.95;3.47;;;;;;;16.53;63.21;100112.56;5104841;28;20052;-80
2021/06/22 02:45:51;;;;;;;7.88;4.38;;;;;;;16.54;62.98;100108.56;5104049;28;20052;-79
2021/06/22 02:48:20;;;;;;;8.45;4.10;;;;;;;16.60;63.23;100118.34;5105286;28;20044;-79
2021/06/22 02:50:47;;;;;;;9.27;4.78;;;;;;;16.61;62.73;100109.56;5100751;28;20055;-79
2021/06/22 02:53:15;;;;;;;9.25;3.85;;;;;;;16.63;62.96;100118.44;5090642;28;20057;-79
2021/06/22 02:55:42;;;;;;;8.02;4.20;;;;;;;16.62;62.74;100111.16;5076254;28;20056;-80
2021/06/22 02:58:09;;;;;;;9.10;4.00;;;;;;;16.63;62.58;100112.81;5075245;28;20059;-80
2021/06/22 03:00:37;;;;;;;7.25;4.95;;;;;;;16.63;63.05;100110.00;5075227;28;20067;-80
2021/06/22 03:03:04;;;;;;;10.50;5.28;;;;;;;16.66;62.66;100119.69;5075985;28;20476;-78
2021/06/22 03:05:34;;;;;;;12.02;5.45;;;;;;;16.57;63.11;100121.91;5075852;28;20603;-79
2021/06/22 03:08:01;;;;;;;9.05;4.95;;;;;;;16.65;63.03;100126.50;5080458;28;20055;-79
2021/06/22 03:10:28;;;;;;;8.43;4.60;;;;;;;16.60;62.96;100136.03;5095626;28;20052;-80
2021/06/22 03:12:56;;;;;;;9.02;5.43;;;;;;;16.63;63.23;100137.28;5095759;28;20401;-78
2021/06/22 03:15:23;;;;;;;10.65;5.22;;;;;;;16.56;63.46;100143.56;5095582;28;20475;-79
2021/06/22 03:17:50;;;;;;;9.60;5.32;;;;;;;16.58;63.66;100140.38;5094869;28;20048;-79
2021/06/22 03:20:19;;;;;;;10.32;5.50;;;;;;;16.59;63.55;100142.84;5095806;28;20429;-79
2021/06/22 03:22:48;;;;;;;11.07;6.25;;;;;;;16.62;63.85;100147.72;5095977;28;20056;-79
2021/06/22 03:25:16;;;;;;;10.43;5.85;;;;;;;16.61;64.15;100136.88;5078359;28;20060;-79
2021/06/22 03:27:44;;;;;;;8.68;5.85;;;;;;;16.59;64.29;100137.22;5075916;28;20056;-78
2021/06/22 03:30:13;;;;;;;9.80;5.25;;;;;;;16.63;64.26;100134.47;5078941;28;20504;-79
2021/06/22 03:32:43;;;;;;;11.65;5.45;;;;;;;16.67;64.17;100145.81;5078923;28;20048;-78
2021/06/22 03:35:12;;;;;;;11.90;6.32;;;;;;;16.67;63.85;100146.63;5078828;28;20401;-80
2021/06/22 03:37:39;;;;;;;10.25;5.20;;;;;;;16.66;63.96;100144.19;5078998;28;20052;-80
2021/06/22 03:40:09;;;;;;;11.18;5.57;;;;;;;16.63;63.96;100145.72;5080491;28;20052;-79
2021/06/22 03:42:37;;;;;;;11.40;5.88;;;;;;;16.60;64.21;100150.09;5078806;28;20419;-80
2021/06/22 03:45:06;;;;;;;11.38;6.53;;;;;;;16.62;64.12;100138.47;5078930;28;20055;-77
2021/06/22 03:47:34;;;;;;;8.77;5.53;;;;;;;16.60;64.07;100141.66;5079035;28;20060;-80
2021/06/22 03:50:02;;;;;;;10.05;5.60;;;;;;;16.66;63.74;100132.94;5078188;28;20056;-79
2021/06/22 03:52:29;;;;;;;12.30;6.07;;;;;;;16.70;63.15;100139.47;5078067;28;20049;-80
2021/06/22 03:54:57;;;;;;;12.23;5.95;;;;;;;16.69;63.10;100137.84;5079034;28;20052;-80
2021/06/22 03:57:26;;;;;;;9.25;5.40;;;;;;;16.71;62.86;100136.28;5078265;28;20139;-79
2021/06/22 03:59:53;;;;;;;10.07;5.20;;;;;;;16.75;62.82;100145.63;5078348;28;20063;-79
2021/06/22 04:02:21;;;;;;;12.05;5.38;;;;;;;16.71;62.65;100141.09;5078298;28;20048;-79
2021/06/22 04:04:48;;;;;;;9.18;5.15;;;;;;;16.76;62.51;100144.47;5078259;28;20049;-79
2021/06/22 04:07:15;;;;;;;12.35;5.97;;;;;;;16.81;62.44;100149.81;5079295;28;20063;-79
2021/06/22 04:09:42;;;;;;;10.15;5.15;;;;;;;16.83;62.47;100141.03;5095069;28;20055;-80
2021/06/22 04:12:10;;;;;;;12.02;5.35;;;;;;;16.86;62.24;100151.53;5097980;28;20361;-79
2021/06/22 04:14:39;;;;;;;12.88;5.43;;;;;;;16.89;62.33;100150.00;5083927;28;20416;-80
2021/06/22 04:17:06;;;;;;;12.30;5.80;;;;;;;16.87;62.39;100155.19;5078134;28;20052;-78
2021/06/22 04:19:34;;;;;;;13.05;5.38;;;;;;;16.91;62.35;100162.53;5082327;28;20043;-80
2021/06/22 04:22:01;;;;;;;9.45;5.45;;;;;;;16.98;62.11;100162.69;5098604;28;20516;-78
2021/06/22 04:24:28;;;;;;;10.32;5.40;;;;;;;17.00;62.19;100165.94;5088695;28;20416;-78
2021/06/22 04:26:56;;;;;;;14.98;6.55;;;;;;;17.00;62.25;100165.94;5078748;28;20059;-78
2021/06/22 04:29:23;;;;;;;12.52;5.63;;;;;;;17.03;62.10;100158.81;5078239;28;20060;-78
2021/06/22 04:31:52;;;;;;;16.45;5.72;;;;;;;17.08;61.86;100154.88;5077485;28;20049;-80
2021/06/22 04:34:20;;;;;;;9.25;5.88;;;;;;;17.01;62.10;100164.78;5078742;28;20052;-79
2021/06/22 04:36:47;;;;;;;11.45;7.05;;;;;;;17.07;61.81;100158.88;5078374;28;20059;-78
2021/06/22 04:39:15;;;;;;;10.50;6.55;;;;;;;17.09;62.02;100165.75;5078093;28;20056;-80
2021/06/22 04:41:42;;;;;;;9.27;5.68;;;;;;;17.13;62.13;100169.47;5077739;28;20052;-78
2021/06/22 04:44:09;;;;;;;11.43;5.80;;;;;;;17.15;62.54;100174.72;5077222;28;20048;-79
2021/06/22 04:46:37;;;;;;;14.43;6.25;;;;;;;17.16;62.02;100168.75;5077532;28;20045;-78
2021/06/22 04:49:06;;;;;;;11.02;6.57;;;;;;;17.19;61.76;100161.56;5077210;28;20056;-79
2021/06/22 04:51:33;;;;;;;12.23;7.60;;;;;;;17.20;61.67;100163.22;5077080;28;20048;-80
2021/06/22 04:54:00;;;;;;;12.00;7.80;;;;;;;17.26;61.53;100161.75;5078119;28;20047;-78
2021/06/22 04:56:28;;;;;;;13.35;9.25;;;;;;;17.31;60.96;100152.19;5075935;28;20057;-79
2021/06/22 04:58:57;;;;;;;14.35;9.40;;;;;;;17.29;61.00;100161.00;5085246;28;20385;-79
2021/06/22 05:01:25;;;;;;;14.10;8.85;;;;;;;17.37;61.16;100164.78;5096281;28;20044;-78
2021/06/22 05:03:53;;;;;;;12.73;9.63;;;;;;;17.39;61.24;100156.78;5096262;28;20048;-78
2021/06/22 05:06:22;;;;;;;13.75;8.18;;;;;;;17.43;61.50;100147.25;5095612;28;20052;-79
2021/06/22 05:08:50;;;;;;;11.48;9.00;;;;;;;17.50;61.15;100148.56;5095589;28;20051;-78
2021/06/22 05:11:18;;;;;;;10.48;8.10;;;;;;;17.54;61.24;100155.09;5084784;28;20048;-79
2021/06/22 05:13:45;;;;;;;15.43;8.05;;;;;;;17.55;61.01;100151.91;5072773;28;20064;-78
2021/06/22 05:16:12;;;;;;;11.52;7.88;;;;;;;17.61;60.89;100160.88;5074553;28;20061;-79
2021/06/22 05:18:40;;;;;;;12.13;7.82;;;;;;;17.66;60.39;100166.22;5075294;28;20056;-79
2021/06/22 05:21:07;;;;;;;11.50;7.85;;;;;;;17.69;60.75;100184.38;5074896;28;20044;-78
2021/06/22 05:23:36;;;;;;;14.45;7.88;;;;;;;17.61;60.78;100183.41;5077389;28;20048;-80
2021/06/22 05:26:03;;;;;;;13.30;8.13;;;;;;;17.64;60.31;100185.50;5075746;28;20052;-79
2021/06/22 05:28:31;;;;;;;12.32;8.02;;;;;;;17.62;60.73;100187.88;5076617;28;20049;-80
2021/06/22 05:30:58;;;;;;;12.70;7.30;;;;;;;17.62;60.88;100187.88;5075919;28;20448;-80
2021/06/22 05:33:26;;;;;;;12.73;7.97;;;;;;;17.72;60.10;100178.00;5077321;28;20086;-80
2021/06/22 05:35:53;;;;;;;14.93;9.93;;;;;;;17.79;60.19;100181.78;5076610;28;20059;-80
2021/06/22 05:38:21;;;;;;;12.70;7.90;;;;;;;17.75;60.89;100174.47;5089142;28;20052;-78
2021/06/22 05:40:50;;;;;;;12.77;7.88;;;;;;;17.84;63.27;100187.16;5098927;28;20056;-79
2021/06/22 05:43:17;;;;;;;14.88;8.23;;;;;;;18.01;60.74;100185.06;5102918;28;20048;-79
2021/06/22 05:45:44;;;;;;;14.25;7.60;;;;;;;18.04;60.37;100187.97;5106874;28;20051;-78
2021/06/22 05:48:12;;;;;;;12.02;7.72;;;;;;;18.20;59.19;100184.22;5104958;28;20048;-78
2021/06/22 05:50:39;;;;;;;12.98;8.02;;;;;;;18.02;59.87;100172.63;5105723;28;20048;-78
2021/06/22 05:53:06;;;;;;;15.18;8.82;;;;;;;18.18;58.75;100183.78;5100934;28;20055;-79
2021/06/22 05:55:34;;;;;;;10.45;7.45;;;;;;;18.44;57.43;100186.72;5082714;28;20052;-78
2021/06/22 05:58:03;;;;;;;15.25;8.05;;;;;;;18.62;56.89;100197.50;5090115;28;20052;-78
2021/06/22 06:00:33;;;;;;;11.85;7.30;;;;;;;18.73;56.62;100192.88;5097639;28;20485;-78
2021/06/22 06:03:00;;;;;;;10.93;7.60;;;;;;;18.86;56.48;100185.03;5077503;28;20048;-79
2021/06/22 06:05:28;;;;;;;13.48;8.02;;;;;;;19.02;56.33;100187.69;5076872;28;20048;-78
2021/06/22 06:07:55;;;;;;;12.70;7.80;;;;;;;19.26;55.34;100192.13;5076185;28;20048;-77
2021/06/22 06:10:24;;;;;;;10.38;7.30;;;;;;;19.37;54.69;100192.28;5076580;28;20040;-79
2021/06/22 06:12:51;;;;;;;12.47;7.77;;;;;;;19.32;54.35;100196.25;5081373;28;20052;-78
2021/06/22 06:15:20;;;;;;;13.70;7.32;;;;;;;19.32;54.26;100201.91;5077556;28;20474;-78
2021/06/22 06:17:48;;;;;;;14.77;7.78;;;;;;;19.43;54.27;100182.28;5077587;28;20048;-79
2021/06/22 06:20:16;;;;;;;12.10;7.43;;;;;;;19.67;53.69;100186.63;5078068;28;20087;-78
2021/06/22 06:22:43;;;;;;;9.65;7.38;;;;;;;20.06;52.28;100192.81;5098033;28;20059;-78
2021/06/22 06:25:13;;;;;;;9.23;7.13;;;;;;;20.30;51.38;100193.47;5095956;28;20056;-78
2021/06/22 06:27:47;;;;;;;9.75;6.85;;;;;;;20.45;50.68;100195.25;5098524;28;20374;-78
2021/06/22 06:30:18;;;;;;;10.60;6.05;;;;;;;20.39;50.98;100194.00;5090924;28;20051;-78
2021/06/22 06:32:48;;;;;;;8.77;6.07;;;;;;;20.41;51.51;100193.56;5097972;28;20060;-78
2021/06/22 06:35:16;;;;;;;9.63;6.15;;;;;;;20.37;51.85;100190.72;5096703;28;20067;-77
2021/06/22 06:37:45;;;;;;;8.15;6.05;;;;;;;20.45;50.85;100198.09;5092703;28;20059;-80
2021/06/22 06:40:12;;;;;;;9.07;6.05;;;;;;;20.42;50.75;100200.88;5097045;28;20052;-78
2021/06/22 06:42:40;;;;;;;10.15;6.38;;;;;;;20.37;50.69;100212.53;5094178;28;20408;-80
2021/06/22 06:45:10;;;;;;;8.57;5.97;;;;;;;20.31;50.60;100212.09;5095039;28;20385;-79
2021/06/22 06:47:38;;;;;;;9.27;5.93;;;;;;;20.54;50.28;100214.75;5094750;28;20063;-80
2021/06/22 06:50:08;;;;;;;8.00;5.15;;;;;;;20.82;49.08;100216.25;5093874;28;20048;-80
2021/06/22 06:52:37;;;;;;;7.38;4.95;;;;;;;20.87;48.74;100218.72;5094769;28;20056;-78
2021/06/22 06:55:24;;;;;;;8.00;4.40;;;;;;;20.86;48.75;100208.59;5084442;28;20067;-80
2021/06/22 06:57:53;;;;;;;8.05;4.80;;;;;;;20.74;49.39;100206.06;5090533;28;20052;-80
2021/06/22 07:00:21;;;;;;;7.20;4.15;;;;;;;20.76;49.17;100209.31;5091487;28;20052;-80
2021/06/22 07:02:49;;;;;;;8.43;4.60;;;;;;;20.61;49.62;100214.03;5090014;28;20051;-78
2021/06/22 07:05:19;;;;;;;6.85;4.13;;;;;;;20.60;50.27;100218.06;5095139;28;20059;-80
2021/06/22 07:07:47;;;;;;;8.65;4.97;;;;;;;20.56;50.40;100217.19;5096975;28;20404;-80
2021/06/22 07:10:15;;;;;;;9.50;5.53;;;;;;;20.58;50.83;100226.13;5088367;28;20059;-79
2021/06/22 07:12:45;;;;;;;10.30;5.80;;;;;;;20.52;50.00;100217.16;5090804;28;20051;-80
2021/06/22 07:15:15;;;;;;;7.28;5.40;;;;;;;20.54;50.22;100199.78;5093069;28;20055;-79
2021/06/22 07:17:43;;;;;;;8.70;5.68;;;;;;;20.62;49.74;100215.66;5094297;28;20062;-79
2021/06/22 07:20:11;;;;;;;10.68;5.40;;;;;;;20.89;49.29;100224.78;5109868;28;20048;-79
2021/06/22 07:22:40;;;;;;;9.15;5.38;;;;;;;20.96;49.84;100215.56;5094698;28;20456;-80
2021/06/22 07:25:08;;;;;;;10.02;5.05;;;;;;;20.96;49.11;100222.03;5082278;28;20412;-79
2021/06/22 07:27:35;;;;;;;7.05;4.00;;;;;;;21.02;48.13;100222.47;5087559;28;20052;-79
2021/06/22 07:30:04;;;;;;;6.80;3.88;;;;;;;21.02;48.61;100211.97;5090433;28;20059;-79
2021/06/22 07:32:32;;;;;;;9.00;4.22;;;;;;;21.15;47.63;100214.50;5091948;28;20048;-79
2021/06/22 07:34:59;;;;;;;5.65;4.15;;;;;;;21.26;46.96;100215.41;5094643;28;20059;-79
2021/06/22 07:37:27;;;;;;;8.93;4.55;;;;;;;21.32;46.71;100213.00;5096791;28;20412;-80
2021/06/22 07:39:55;;;;;;;8.05;4.03;;;;;;;21.53;46.39;100216.00;5087137;28;20056;-80
2021/06/22 07:42:23;;;;;;;6.85;4.22;;;;;;;22.12;45.11;100217.91;5095598;28;20052;-79
2021/06/22 07:44:50;;;;;;;5.20;3.90;;;;;;;22.59;44.58;100221.72;5101355;28;20047;-79
2021/06/22 07:47:18;;;;;;;7.68;4.22;;;;;;;22.87;42.78;100223.78;5088894;28;20040;-79
2021/06/22 07:49:45;;;;;;;9.63;6.22;;;;;;;22.69;42.32;100226.59;5096327;28;20059;-78
2021/06/22 07:52:13;;;;;;;9.02;5.10;;;;;;;22.96;42.15;100221.34;5088012;28;20059;-80
2021/06/22 07:54:40;;;;;;;5.60;4.15;;;;;;;23.34;41.97;100233.13;5088122;28;20507;-80
2021/06/22 07:57:09;;;;;;;6.28;4.28;;;;;;;23.53;39.93;100222.53;5097638;28;20401;-80
2021/06/22 07:59:36;;;;;;;5.70;4.63;;;;;;;23.54;40.53;100221.31;5097997;28;20052;-79
2021/06/22 08:02:04;;;;;;;5.68;3.97;;;;;;;23.25;41.83;100222.19;5100388;28;20056;-80
2021/06/22 08:04:31;;;;;;;6.50;4.10;;;;;;;22.77;41.34;100235.94;5092995;28;20055;-79
2021/06/22 08:06:59;;;;;;;5.68;3.92;;;;;;;22.76;41.60;100231.47;5098226;28;20052;-79
2021/06/22 08:09:26;;;;;;;5.72;3.50;;;;;;;22.68;42.07;100242.03;5082604;28;20385;-79
2021/06/22 08:11:54;;;;;;;5.60;3.95;;;;;;;22.47;42.53;100237.09;5088529;28;20059;-79
2021/06/22 08:14:22;;;;;;;6.15;4.00;;;;;;;21.98;44.41;100238.50;5084527;28;20056;-79
2021/06/22 08:16:50;;;;;;;6.35;2.97;;;;;;;22.14;44.14;100246.69;5105343;28;20492;-78
2021/06/22 08:19:17;;;;;;;4.82;3.10;;;;;;;22.04;44.72;100257.56;5097016;28;20493;-78
2021/06/22 08:21:45;;;;;;;5.93;3.25;;;;;;;22.15;43.66;100242.63;5099132;28;20059;-78
2021/06/22 08:24:15;;;;;;;5.25;3.33;;;;;;;22.19;43.60;100238.59;5091433;28;20044;-81
2021/06/22 08:26:43;;;;;;;6.05;3.13;;;;;;;22.07;42.81;100238.97;5093498;28;20408;-79
2021/06/22 08:29:10;;;;;;;5.15;2.80;;;;;;;21.78;44.83;100230.31;5095558;28;20052;-79
2021/06/22 08:31:39;;;;;;;8.48;3.40;;;;;;;22.18;44.03;100234.16;5100703;28;20453;-79
2021/06/22 08:34:06;;;;;;;6.70;3.22;;;;;;;22.26;42.68;100229.34;5095204;28;20393;-79
2021/06/22 08:36:34;;;;;;;5.30;2.65;;;;;;;22.48;42.04;100235.88;5096187;28;20052;-80
2021/06/22 08:39:01;;;;;;;5.28;2.92;;;;;;;22.13;42.12;100237.34;5098628;28;20051;-79
2021/06/22 08:41:30;;;;;;;4.30;2.72;;;;;;;21.88;42.79;100243.75;5096869;28;20055;-80
2021/06/22 08:43:58;;;;;;;4.65;2.60;;;;;;;21.74;43.92;100246.50;5093439;28;20048;-80
2021/06/22 08:46:25;;;;;;;6.78;3.03;;;;;;;21.69;44.45;100244.03;5107639;28;20043;-81
2021/06/22 08:48:55;;;;;;;6.32;2.80;;;;;;;21.62;43.69;100241.16;5101825;28;20040;-80
2021/06/22 08:51:23;;;;;;;4.82;2.80;;;;;;;21.63;44.02;100245.63;5101444;28;20055;-79
2021/06/22 08:53:51;;;;;;;4.47;3.13;;;;;;;21.61;45.32;100253.72;5116891;28;20048;-79
2021/06/22 08:56:19;;;;;;;5.57;2.78;;;;;;;21.56;46.63;100254.06;5099126;28;20052;-78
2021/06/22 08:58:46;;;;;;;3.92;3.22;;;;;;;21.58;47.05;100257.31;5100081;28;20044;-79
2021/06/22 09:01:13;;;;;;;5.22;3.50;;;;;;;21.66;47.06;100262.66;5090955;28;20053;-79
2021/06/22 09:03:41;;;;;;;5.20;3.70;;;;;;;21.73;47.21;100267.53;5089540;28;20497;-79
2021/06/22 09:06:10;;;;;;;6.10;3.60;;;;;;;21.86;45.66;100257.50;5100570;28;20473;-76
2021/06/22 09:08:38;;;;;;;4.95;3.28;;;;;;;21.92;44.92;100257.13;5098162;28;20055;-80
2021/06/22 09:11:07;;;;;;;5.63;3.50;;;;;;;21.99;45.52;100271.34;5084138;28;20048;-81
2021/06/22 09:13:35;;;;;;;5.18;3.20;;;;;;;22.18;43.60;100270.22;5101229;28;20052;-80
2021/06/22 09:16:03;;;;;;;5.22;3.92;;;;;;;22.54;44.24;100256.97;5097726;28;20048;-79
2021/06/22 09:18:33;;;;;;;3.58;3.15;;;;;;;22.71;43.22;100252.56;5091279;28;20413;-78
2021/06/22 09:21:02;;;;;;;5.15;3.15;;;;;;;22.63;43.76;100254.56;5096923;28;20052;-77
2021/06/22 09:23:33;;;;;;;7.07;3.90;;;;;;;22.37;42.63;100261.41;5088523;28;20500;-81
2021/06/22 09:26:04;;;;;;;4.28;3.15;;;;;;;22.34;41.89;100250.03;5097463;28;20063;-80
2021/06/22 09:28:34;;;;;;;4.90;3.58;;;;;;;22.00;43.52;100253.09;5100741;28;20052;-80
2021/06/22 09:31:03;;;;;;;5.25;3.38;;;;;;;21.93;44.47;100255.91;5097442;28;20051;-79
2021/06/22 09:33:36;;;;;;;6.75;4.10;;;;;;;21.93;43.98;100259.56;5096941;28;20515;-80
2021/06/22 09:36:07;;;;;;;7.13;3.97;;;;;;;21.87;44.44;100273.28;5086213;28;20059;-80
2021/06/22 09:38:37;;;;;;;5.57;4.00;;;;;;;21.55;45.81;100261.78;5090645;28;20059;-80
2021/06/22 09:41:11;;;;;;;6.28;4.10;;;;;;;21.63;45.82;100263.44;5068596;28;20056;-80
2021/06/22 09:43:41;;;;;;;6.88;4.20;;;;;;;21.53;45.54;100261.34;5099026;28;20051;-80
2021/06/22 09:46:09;;;;;;;6.57;4.07;;;;;;;21.73;45.65;100267.53;5095222;28;20305;-79
2021/06/22 09:48:51;;;;;;;4.97;3.73;;;;;;;22.08;45.86;100275.44;5096430;28;20067;-80
2021/06/22 09:51:19;;;;;;;6.55;3.88;;;;;;;22.39;44.65;100269.53;5083921;28;20390;-80
2021/06/22 09:53:48;;;;;;;7.15;3.78;;;;;;;22.56;44.04;100274.44;5092395;28;20048;-81
2021/06/22 09:56:24;;;;;;;5.80;4.00;;;;;;;22.70;44.03;100270.81;5073813;28;20056;-80
2021/06/22 09:58:52;;;;;;;7.20;4.38;;;;;;;22.55;43.82;100275.63;5092308;28;20370;-79
2021/06/22 10:01:32;;;;;;;7.03;4.55;;;;;;;22.80;42.54;100263.53;5096259;28;20063;-78
2021/06/22 10:04:17;;;;;;;6.18;4.30;;;;;;;22.87;43.20;100267.19;5092137;28;20052;-80
2021/06/22 10:06:50;;;;;;;6.15;4.32;;;;;;;23.02;42.45;100261.56;5086716;28;20052;-80
2021/06/22 10:09:26;;;;;;;6.57;3.58;;;;;;;23.16;41.75;100258.72;5091057;28;20059;-79
2021/06/22 10:12:06;;;;;;;6.22;4.00;;;;;;;23.38;40.85;100251.00;5096653;28;20048;-80
2021/06/22 10:14:35;;;;;;;7.13;4.00;;;;;;;23.36;41.22;100249.78;5087259;28;20048;-79
2021/06/22 10:17:04;;;;;;;7.22;4.28;;;;;;;23.13;40.83;100258.72;5079469;28;20499;-79
2021/06/22 10:19:32;;;;;;;7.55;4.90;;;;;;;22.87;41.44;100260.72;5085008;28;20044;-81
2021/06/22 10:22:01;;;;;;;9.88;4.75;;;;;;;23.06;41.94;100253.84;5092949;28;20523;-80
2021/06/22 10:24:30;;;;;;;6.23;4.30;;;;;;;23.48;41.83;100249.38;5086619;28;20048;-80
2021/06/22 10:26:59;;;;;;;;;;;;;;;23.25;41.54;100270.50;5092549;28;20488;-80
2021/06/22 10:29:30;;;;;;;8.73;5.35;;;;;;;23.19;41.31;100271.31;5093889;28;19930;-79
2021/06/22 10:32:00;;;;;;;6.38;5.15;;;;;;;23.47;41.39;100256.25;5095668;28;20408;-79
2021/06/22 10:34:28;;;;;;;6.10;4.82;;;;;;;24.04;40.50;100255.31;5091542;28;20082;-79
2021/06/22 10:37:03;;;;;;;6.47;4.97;;;;;;;24.61;39.83;100262.81;5089214;28;20440;-80
2021/06/22 10:39:40;;;;;;;8.45;5.40;;;;;;;24.91;38.24;100248.78;5083529;28;20052;-80
2021/06/22 10:42:11;;;;;;;7.13;5.13;;;;;;;25.59;37.14;100250.22;5093722;28;20071;-80
2021/06/22 10:44:53;;;;;;;6.82;5.13;;;;;;;26.62;35.43;100261.66;5094474;28;20048;-80
2021/06/22 10:47:22;;;;;;;8.13;5.18;;;;;;;26.97;34.05;100265.25;5081817;28;20048;-80
2021/06/22 10:50:07;;;;;;;6.88;5.40;;;;;;;27.08;34.45;100257.28;5079311;28;20052;-80
2021/06/22 10:52:55;;;;;;;7.13;5.47;;;;;;;27.26;33.72;100259.91;5092646;28;20055;-78
2021/06/22 10:55:58;;;;;;;6.77;5.33;;;;;;;27.06;33.60;100250.41;5094790;28;20060;-78
2021/06/22 10:58:26;;;;;;;7.78;5.03;;;;;;;27.39;33.69;100262.13;5086734;28;20055;-79
2021/06/22 11:01:18;;;;;;;9.20;5.45;;;;;;;27.10;33.91;100257.66;5085628;28;20045;-78
2021/06/22 11:04:04;;;;;;;6.85;4.63;;;;;;;26.80;33.65;100264.28;5106241;28;20048;-78
2021/06/22 11:06:31;;;;;;;8.15;4.43;;;;;;;26.88;33.17;100268.66;5084870;28;20059;-78
2021/06/22 11:09:18;;;;;;;8.38;4.15;;;;;;;26.28;34.72;100262.50;5087785;28;20055;-79
2021/06/22 11:11:47;;;;;;;5.30;4.32;;;;;;;25.65;35.54;100262.00;5098669;28;20052;-79
2021/06/22 11:14:16;;;;;;;5.10;4.38;;;;;;;25.24;36.50;100262.78;5095357;28;20048;-78
2021/06/22 11:16:44;;;;;;;6.95;4.13;;;;;;;25.09;37.29;100254.34;5095244;28;20048;-79
2021/06/22 11:19:14;;;;;;;6.80;4.25;;;;;;;24.89;37.09;100261.81;5101527;28;20056;-78
2021/06/22 11:21:55;;;;;;;6.97;3.83;;;;;;;25.02;37.80;100254.38;5080073;28;20063;-79
2021/06/22 11:24:25;;;;;;;5.15;4.18;;;;;;;24.82;37.13;100259.84;5095609;28;20056;-78
2021/06/22 11:27:04;;;;;;;7.28;4.30;;;;;;;24.79;37.65;100254.16;5093604;28;20051;-78
2021/06/22 11:30:01;;;;;;;6.45;4.40;;;;;;;24.42;38.33;100262.09;5100061;28;20052;-78
2021/06/22 11:32:38;;;;;;;8.98;4.45;;;;;;;24.15;38.77;100258.97;5060776;28;20059;-77